ADDS METAR Data INFO
IDs: Format: Raw Decoded Include TAF

Data at: 0316 UTC 21 Sep 2017

KCPR 210253Z AUTO 12004KT 10SM CLR 12/01 A2982 RMK AO2 SLP065 T01220006 53005
KCPR 210153Z 10005KT 10SM CLR 12/01 A2980 RMK AO2 SLP068 T01170006
KCPR 210053Z 27003KT 10SM CLR 14/M01 A2979 RMK AO2 SLP064 T01441006
KCPR 202353Z 25010KT 10SM CLR 17/M02 A2980 RMK AO2 PK WND 24028/2255 SLP059 T01721022 10194 20150 57007
KCPR 202253Z 24018G22KT 10SM CLR 19/M03 A2981 RMK AO2 PK WND 23034/2208 SLP058 T01891033
KCPR 202153Z 24021G31KT 10SM CLR 19/M04 A2982 RMK AO2 PK WND 21035/2057 SLP065 T01891044
KCPR 202053Z 23027G36KT 10SM CLR 18/M04 A2982 RMK AO2 PK WND 23041/1957 SLP065 T01831044 56016
KCPR 201953Z 23022G32KT 10SM CLR 18/M04 A2983 RMK AO2 PK WND 25036/1923 SLP068 T01781044
KCPR 201853Z 23027G41KT 10SM CLR 17/M04 A2985 RMK AO2 PK WND 23041/1844 SLP077 T01671044
KCPR 201753Z 24023G33KT 10SM CLR 15/M04 A2988 RMK AO2 PK WND 23033/1753 RAB40E49 SLP088 P0000 6//// T01501044 58013
KCPR 201653Z CLR A2991 RMK AO2 SLPNO PNO $
KCPR 201553Z CLR A2993 RMK AO2 SLPNO PNO $
KCPR 201453Z 23018G27KT 10SM CLR 09/M02 A2992 RMK AO2 PK WND 22027/1435 SLP116 T00891022 51004
KCPR 201353Z 22018KT 10SM CLR 06/M03 A2992 RMK AO2 SLP117 T00561028
KCPR 201253Z 22014KT 10SM CLR 03/M04 A2992 RMK AO2 SLP122 T00281039
KCPR 201153Z 22010KT 10SM CLR 03/M03 A2991 RMK AO2 SLP114 70005 T00331033 10050 20022 50005
KCPR 201053Z 22013KT 10SM CLR 03/M03 A2991 RMK AO2 SLP117 T00281028
KCPR 200953Z AUTO 22011KT 10SM CLR 02/M02 A2990 RMK AO2 SLP118 T00221022
KCPR 200853Z AUTO 22014KT 10SM CLR 03/M02 A2989 RMK AO2 SLP110 T00331022 53010
KCPR 200753Z AUTO 22014KT 10SM CLR 04/M02 A2988 RMK AO2 SLP103 T00441022
KCPR 200653Z AUTO 22016KT 10SM CLR 04/M01 A2985 RMK AO2 SLP097 T00441011 401830033
KCPR 200553Z AUTO 22014KT 10SM CLR 05/M02 A2985 RMK AO2 SLP095 T00501017 10100 20033 50002
KCPR 200453Z AUTO 22010KT 10SM CLR 04/M02 A2986 RMK AO2 SLP089 T00391017
KCPR 200353Z AUTO 20012KT 10SM CLR 04/M01 A2985 RMK AO2 SLP081 T00441006
KCPR 200253Z AUTO 23010KT 10SM CLR 06/01 A2985 RMK AO2 SLP081 T00560011 53017
KCPR 200153Z 21014KT 10SM CLR 08/01 A2982 RMK AO2 SLP070 T00780006
KCPR 200053Z 21017G22KT 10SM FEW085 08/02 A2980 RMK AO2 PK WND 21029/2359 SLP065 T00830017
KCPR 192353Z 21017G27KT 10SM FEW070 09/02 A2979 RMK AO2 PK WND 22032/2315 SLP056 60004 T00940017 10100 20072 53009
KCPR 192253Z 22018G27KT 10SM BKN110 09/02 A2977 RMK AO2 PK WND 22031/2243 SLP050 T00890022
KCPR 192153Z 21020G27KT 10SM OVC095 08/06 A2977 RMK AO2 PK WND 21030/2054 SLP048 T00780056
KCPR 192053Z 21024G30KT 10SM BKN080 OVC110 09/07 A2976 RMK AO2 PK WND 20030/2052 RAE24 SLP042 P0000 60004 T00890072 50004
KCPR 191953Z 22010KT 10SM -RA FEW039 BKN048 OVC070 08/07 A2978 RMK AO2 SLP042 P0001 T00830072
KCPR 191853Z 25008KT 10SM -RA BKN046 OVC065 08/07 A2977 RMK AO2 PK WND 28030/1802 SLP040 P0003 T00780067
KCPR 191753Z 27018G25KT 6SM -RA BR SCT048 OVC060 08/07 A2975 RMK AO2 PK WND 28029/1735 RAB23 SLP030 P0001 60001 T00830067 10150 20083 53019
KCPR 191653Z 26018G28KT 10SM FEW043 OVC055 12/04 A2971 RMK AO2 PK WND 27033/1634 SLP014 T01220039
KCPR 191553Z 26005KT 10SM BKN060 OVC110 14/05 A2968 RMK AO2 SLP000 T01390050